aviador You're here:

YABA Decoded Metar

in
Report Time2017-06-25 06:00:00
UTC Time2017-06-25 06:56:02
Flight Rules vfr VFR
Wind210° at 03 kt
W.Decomp.*RWY 23: 2.8 kt HW 1 kt LCW
RWY 14: 1.0 kt HW 2.8 kt RCW
W.Rank210° ranks 20
Current wind is below 210° avg. (9.9)
Visibility9999 m
Phenomena:N/A
Clouds:Overcast 054 Hf
Expected CloudBase > 2,400 ft AGL from Temp-Dew spread
Ceiling5,400 ft
Temp15°C
Dew Point09°C (68% RH)
AAT13.7°C
QNH1026 hPa
Raw Report
METAR YABA 250600Z AUTO 21003KT 9999 // OVC054 15/09 Q1026=

Extra information for YABA:More info

Social comments